Terminal Aerodrome Forecast
Issued by NWS Cleveland, OH

Home | Current Version | Previous Version | Graphics & Text | Print | Product List | Glossary On
Versions: 1 2 3 4 5 6 7 8 9 10 11 12 13 14
000
FTUS41 KCLE 260527
TAFCAK
TAF
KCAK 260527Z 2606/2706 27005KT P6SM SCT025 BKN050
      TEMPO 2611/2615 -SHRA OVC025
     FM261500 30008KT P6SM OVC035
     FM270000 32004KT P6SM BKN035=

USA.gov is the U.S. government's official web portal to all federal, state and local government web resources and services.